createdAt,value
2023-03-28T00:01:06.917Z,100.00
2023-03-28T00:03:39.977Z,100.00
2023-03-28T00:06:11.604Z,100.00
2023-03-28T00:08:41.103Z,100.00
2023-03-28T00:11:19.920Z,100.00
2023-03-28T00:13:49.362Z,100.00
2023-03-28T00:16:17.749Z,100.00
2023-03-28T00:18:47.699Z,100.00
2023-03-28T00:21:27.041Z,100.00
2023-03-28T00:24:02.034Z,100.00
2023-03-28T00:26:32.480Z,100.00
2023-03-28T00:29:02.948Z,100.00
2023-03-28T00:31:32.546Z,99.94
2023-03-28T00:34:02.486Z,100.00
2023-03-28T00:36:33.022Z,99.44
2023-03-28T00:39:06.631Z,99.12
2023-03-28T00:41:40.078Z,100.00
2023-03-28T00:44:44.171Z,99.43
2023-03-28T00:47:21.219Z,98.68
2023-03-28T00:49:53.087Z,99.28
2023-03-28T00:52:25.631Z,99.91
2023-03-28T00:54:57.694Z,99.52
2023-03-28T00:57:27.997Z,99.61
2023-03-28T00:59:56.971Z,99.99
2023-03-28T01:02:28.332Z,100.00
2023-03-28T01:05:01.405Z,100.00
2023-03-28T01:07:35.475Z,100.00
2023-03-28T01:10:05.329Z,100.00
2023-03-28T01:12:34.582Z,100.00
2023-03-28T01:15:04.386Z,100.00
2023-03-28T01:17:33.000Z,100.00
2023-03-28T01:20:18.294Z,100.00
2023-03-28T01:23:15.680Z,100.00
2023-03-28T01:26:28.947Z,100.00
2023-03-28T01:29:18.639Z,100.00
2023-03-28T01:32:30.062Z,100.00
2023-03-28T01:35:38.983Z,100.00
2023-03-28T01:38:15.595Z,100.00
2023-03-28T01:40:53.357Z,100.00
2023-03-28T01:43:31.170Z,100.00
2023-03-28T01:46:07.208Z,100.00
2023-03-28T01:48:45.437Z,100.00
2023-03-28T01:51:24.314Z,100.00
2023-03-28T01:54:00.764Z,100.00
2023-03-28T01:56:34.668Z,100.00
2023-03-28T01:59:10.619Z,100.00
2023-03-28T02:01:47.331Z,100.00
2023-03-28T02:04:21.405Z,100.00
2023-03-28T02:06:52.826Z,100.00
2023-03-28T02:09:25.203Z,100.00
2023-03-28T02:11:59.029Z,100.00
2023-03-28T02:14:31.534Z,100.00
2023-03-28T02:17:06.671Z,100.00
2023-03-28T02:19:39.120Z,98.91
2023-03-28T02:22:16.868Z,98.65
2023-03-28T02:24:50.647Z,98.12
2023-03-28T02:27:22.827Z,97.53
2023-03-28T02:29:54.776Z,97.28
2023-03-28T02:32:23.980Z,96.71
2023-03-28T02:34:55.939Z,96.09
2023-03-28T02:37:36.709Z,96.44
2023-03-28T02:40:20.264Z,96.53
2023-03-28T02:43:20.602Z,95.70
2023-03-28T02:46:08.432Z,95.92
2023-03-28T02:48:54.304Z,96.21
2023-03-28T02:51:31.823Z,96.35
2023-03-28T02:54:11.148Z,95.87
2023-03-28T02:56:51.270Z,95.80
2023-03-28T02:59:25.529Z,96.33
2023-03-28T03:01:54.258Z,96.52
2023-03-28T03:04:22.656Z,96.18
2023-03-28T03:06:51.111Z,96.39
2023-03-28T03:09:19.733Z,96.72
2023-03-28T03:11:51.833Z,96.38
2023-03-28T03:14:20.026Z,96.41
2023-03-28T03:16:49.093Z,96.50
2023-03-28T03:19:17.475Z,96.58
2023-03-28T03:21:45.789Z,97.42
2023-03-28T03:24:14.479Z,98.02
2023-03-28T03:26:43.275Z,97.89
2023-03-28T03:29:13.202Z,97.05
2023-03-28T03:31:44.974Z,96.49
2023-03-28T03:34:13.756Z,95.55
2023-03-28T03:36:42.862Z,96.37
2023-03-28T03:39:11.178Z,95.66
2023-03-28T03:41:39.565Z,96.25
2023-03-28T03:44:08.155Z,96.20
2023-03-28T03:46:37.790Z,96.77
2023-03-28T03:49:06.060Z,95.43
2023-03-28T03:51:34.629Z,95.43
2023-03-28T03:54:02.729Z,95.65
2023-03-28T03:56:30.893Z,95.48
2023-03-28T03:58:59.260Z,94.79
2023-03-28T04:01:30.424Z,94.17
2023-03-28T04:04:00.441Z,94.86
2023-03-28T04:06:29.838Z,93.94
2023-03-28T04:08:58.268Z,94.28
2023-03-28T04:11:27.019Z,94.05
2023-03-28T04:13:56.509Z,94.35
2023-03-28T04:16:24.983Z,93.43
2023-03-28T04:18:53.672Z,93.43
2023-03-28T04:21:27.604Z,92.96
2023-03-28T04:23:57.342Z,93.04
2023-03-28T04:26:27.143Z,92.90
2023-03-28T04:28:55.805Z,92.31
2023-03-28T04:31:29.921Z,92.39
2023-03-28T04:34:00.897Z,91.55
2023-03-28T04:36:31.646Z,92.27
2023-03-28T04:39:02.502Z,91.21
2023-03-28T04:41:32.386Z,91.23
2023-03-28T04:44:00.486Z,91.02
2023-03-28T04:46:29.692Z,90.34
2023-03-28T04:48:59.443Z,90.34
2023-03-28T04:51:30.363Z,89.97
2023-03-28T04:54:03.295Z,89.51
2023-03-28T04:56:31.418Z,89.05
2023-03-28T04:58:59.493Z,89.29
2023-03-28T05:01:31.189Z,89.07
2023-03-28T05:03:59.337Z,86.81
2023-03-28T05:06:27.905Z,86.93
2023-03-28T05:08:57.065Z,86.95
2023-03-28T05:11:26.919Z,86.82
2023-03-28T05:13:55.141Z,86.60
2023-03-28T05:16:23.643Z,87.25
2023-03-28T05:18:52.881Z,87.18
2023-03-28T05:21:21.008Z,87.17
2023-03-28T05:23:51.377Z,86.75
2023-03-28T05:26:21.202Z,86.70
2023-03-28T05:28:51.298Z,85.42
2023-03-28T05:31:19.560Z,86.02
2023-03-28T05:33:47.891Z,85.11
2023-03-28T05:36:16.490Z,84.77
2023-03-28T05:38:44.670Z,84.56
2023-03-28T05:41:12.775Z,85.29
2023-03-28T05:43:41.494Z,85.20
2023-03-28T05:46:11.595Z,85.15
2023-03-28T05:48:40.230Z,85.07
2023-03-28T05:51:08.688Z,84.87
2023-03-28T05:53:36.910Z,85.42
2023-03-28T05:56:05.119Z,85.31
2023-03-28T05:58:33.389Z,84.94
2023-03-28T06:01:03.051Z,85.02
2023-03-28T06:03:32.905Z,85.07
2023-03-28T06:06:02.067Z,84.69
2023-03-28T06:08:30.257Z,84.92
2023-03-28T06:11:02.360Z,84.22
2023-03-28T06:13:31.347Z,84.28
2023-03-28T06:15:59.423Z,83.94
2023-03-28T06:18:27.873Z,83.67
2023-03-28T06:20:57.884Z,83.55
2023-03-28T06:23:26.812Z,83.51
2023-03-28T06:25:55.452Z,83.04
2023-03-28T06:28:23.938Z,83.61
2023-03-28T06:30:54.685Z,84.52
2023-03-28T06:33:23.184Z,84.26
2023-03-28T06:35:51.695Z,84.22
2023-03-28T06:38:21.418Z,83.79
2023-03-28T06:40:49.775Z,84.21
2023-03-28T06:43:17.926Z,83.83
2023-03-28T06:45:46.114Z,83.83
2023-03-28T06:48:14.581Z,83.07
2023-03-28T06:50:50.068Z,82.27
2023-03-28T06:53:18.871Z,82.23
2023-03-28T06:55:51.114Z,82.13
2023-03-28T06:58:19.712Z,81.37
2023-03-28T07:00:48.628Z,81.62
2023-03-28T07:03:16.846Z,79.83
2023-03-28T07:05:45.180Z,78.85
2023-03-28T07:08:14.601Z,78.70
2023-03-28T07:10:43.989Z,79.07
2023-03-28T07:13:14.320Z,78.73
2023-03-28T07:15:42.627Z,77.38
2023-03-28T07:18:11.359Z,77.96
2023-03-28T07:20:40.728Z,77.44
2023-03-28T07:23:08.985Z,78.70
2023-03-28T07:25:37.545Z,77.48
2023-03-28T07:28:06.171Z,78.57
2023-03-28T07:30:36.830Z,80.72
2023-03-28T07:33:15.353Z,81.04
2023-03-28T07:35:46.946Z,80.98
2023-03-28T07:38:15.135Z,80.15
2023-03-28T07:40:44.404Z,79.47
2023-03-28T07:43:12.729Z,80.21
2023-03-28T07:45:42.202Z,79.95
2023-03-28T07:48:10.696Z,78.87
2023-03-28T07:50:39.122Z,77.83
2023-03-28T07:53:07.320Z,78.18
2023-03-28T07:58:10.027Z,78.49
2023-03-28T08:00:38.404Z,78.27
2023-03-28T08:03:09.161Z,77.28
2023-03-28T08:05:38.048Z,77.18
2023-03-28T08:08:07.366Z,76.96
2023-03-28T08:10:36.480Z,77.00
2023-03-28T08:13:05.276Z,78.02
2023-03-28T08:15:33.749Z,77.48
2023-03-28T08:18:01.930Z,75.40
2023-03-28T08:20:31.620Z,73.75
2023-03-28T08:22:59.889Z,67.83
2023-03-28T08:25:28.477Z,64.09
2023-03-28T08:27:56.895Z,60.91
2023-03-28T08:30:25.413Z,55.67
2023-03-28T08:32:53.992Z,54.29
2023-03-28T08:35:22.345Z,55.17
2023-03-28T08:37:52.906Z,55.92
2023-03-28T08:40:22.261Z,51.00
2023-03-28T08:43:08.235Z,48.29
2023-03-28T08:45:47.690Z,49.23
2023-03-28T08:48:21.397Z,48.81
2023-03-28T08:50:54.689Z,48.71
2023-03-28T08:53:34.593Z,48.49
2023-03-28T08:56:06.336Z,45.86
2023-03-28T08:58:40.082Z,43.49
2023-03-28T09:01:11.664Z,42.21
2023-03-28T09:03:40.225Z,41.68
2023-03-28T09:06:21.023Z,41.02
2023-03-28T09:09:22.515Z,38.48
2023-03-28T09:12:04.047Z,38.97
2023-03-28T09:15:06.624Z,36.32
2023-03-28T09:17:45.882Z,38.33
2023-03-28T09:20:21.488Z,36.10
2023-03-28T09:23:06.265Z,36.06
2023-03-28T09:25:40.808Z,36.32
2023-03-28T09:28:20.254Z,36.89
2023-03-28T09:30:52.144Z,38.35
2023-03-28T09:33:25.664Z,38.27
2023-03-28T09:35:57.301Z,37.66
2023-03-28T09:38:31.253Z,37.60
2023-03-28T09:41:08.439Z,36.81
2023-03-28T09:43:41.212Z,37.29
2023-03-28T09:46:12.711Z,37.44
2023-03-28T09:48:41.327Z,37.35
2023-03-28T09:51:17.069Z,36.91
2023-03-28T09:53:46.597Z,36.77
2023-03-28T09:56:27.741Z,35.15
2023-03-28T09:58:57.777Z,34.88
2023-03-28T10:01:33.080Z,34.95
2023-03-28T10:04:01.764Z,35.21
2023-03-28T10:06:32.088Z,35.13
2023-03-28T10:09:12.133Z,34.08
2023-03-28T10:11:52.292Z,35.31
2023-03-28T10:14:35.131Z,35.29
2023-03-28T10:17:07.613Z,36.20
2023-03-28T10:19:39.490Z,37.02
2023-03-28T10:22:09.732Z,36.98
2023-03-28T10:24:39.832Z,37.92
2023-03-28T10:27:19.570Z,37.87
2023-03-28T10:29:48.652Z,38.05
2023-03-28T10:32:26.541Z,37.29
2023-03-28T10:35:03.556Z,37.26
2023-03-28T10:37:33.871Z,38.17
2023-03-28T10:40:07.161Z,37.80
2023-03-28T10:42:45.239Z,36.55
2023-03-28T10:45:23.894Z,36.85
2023-03-28T10:47:54.831Z,37.34
2023-03-28T10:50:37.328Z,36.42
2023-03-28T10:53:21.924Z,36.77
2023-03-28T10:56:03.817Z,36.38
2023-03-28T10:58:37.893Z,38.49
2023-03-28T11:01:13.247Z,38.95
2023-03-28T11:03:57.439Z,39.64
2023-03-28T11:06:33.819Z,40.96
2023-03-28T11:09:10.917Z,43.02
2023-03-28T11:11:53.824Z,45.78
2023-03-28T11:14:36.817Z,49.10
2023-03-28T11:17:14.486Z,52.07
2023-03-28T11:20:07.201Z,53.81
2023-03-28T11:22:55.499Z,53.75
2023-03-28T11:25:44.066Z,55.13
2023-03-28T11:28:22.791Z,56.50
2023-03-28T11:30:57.527Z,54.86
2023-03-28T11:33:33.450Z,56.92
2023-03-28T11:36:08.652Z,56.90
2023-03-28T11:38:40.713Z,57.56
2023-03-28T11:41:14.456Z,55.61
2023-03-28T11:43:47.364Z,57.97
2023-03-28T11:46:22.281Z,57.23
2023-03-28T11:48:54.629Z,57.34
2023-03-28T11:51:29.203Z,57.87
2023-03-28T11:54:02.548Z,55.51
2023-03-28T11:56:44.766Z,54.20
2023-03-28T11:59:19.532Z,57.41
2023-03-28T12:01:55.707Z,64.96
2023-03-28T12:04:29.707Z,70.02
2023-03-28T12:07:09.121Z,72.34
2023-03-28T12:09:53.704Z,72.88
2023-03-28T12:12:26.647Z,76.10
2023-03-28T12:15:00.593Z,74.92
2023-03-28T12:17:35.282Z,73.72
2023-03-28T12:20:06.769Z,73.87
2023-03-28T12:22:41.611Z,73.75
2023-03-28T12:25:15.678Z,76.87
2023-03-28T12:27:57.161Z,79.58
2023-03-28T12:30:30.033Z,78.15
2023-03-28T12:33:11.953Z,78.01
2023-03-28T12:35:48.655Z,78.21
2023-03-28T12:38:40.126Z,78.99
2023-03-28T12:41:10.414Z,79.85
2023-03-28T12:43:47.159Z,79.60
2023-03-28T12:46:19.675Z,81.24
2023-03-28T12:48:55.595Z,81.19
2023-03-28T12:51:31.443Z,78.74
2023-03-28T12:54:08.771Z,78.89
2023-03-28T12:56:37.263Z,78.37
2023-03-28T12:59:43.297Z,76.99
2023-03-28T13:02:18.332Z,78.10
2023-03-28T13:04:57.078Z,78.98
2023-03-28T13:07:35.380Z,78.80
2023-03-28T13:10:13.698Z,78.56
2023-03-28T13:13:03.449Z,78.03
2023-03-28T13:15:34.026Z,80.77
2023-03-28T13:18:31.932Z,80.09
2023-03-28T13:21:04.601Z,79.12
2023-03-28T13:23:38.830Z,78.63
2023-03-28T13:26:08.277Z,77.74
2023-03-28T13:28:44.533Z,77.28
2023-03-28T13:31:21.218Z,77.12
2023-03-28T13:33:54.134Z,78.28
2023-03-28T13:36:27.200Z,79.49
2023-03-28T13:39:23.501Z,79.39
2023-03-28T13:41:57.993Z,78.97
2023-03-28T13:44:42.068Z,77.95
2023-03-28T13:47:17.967Z,79.33
2023-03-28T13:49:49.650Z,80.43
2023-03-28T13:52:22.271Z,80.32
2023-03-28T13:54:54.486Z,79.16
2023-03-28T13:57:26.161Z,78.55
2023-03-28T13:59:56.917Z,78.07
2023-03-28T14:02:36.705Z,78.06
2023-03-28T14:05:22.283Z,77.17
2023-03-28T14:07:56.514Z,77.69
2023-03-28T14:10:30.720Z,77.62
2023-03-28T14:13:02.424Z,77.92
2023-03-28T14:15:38.095Z,78.36
2023-03-28T14:18:07.136Z,78.82
2023-03-28T14:20:36.290Z,79.20
2023-03-28T14:23:07.133Z,79.82
2023-03-28T14:25:35.865Z,80.11
2023-03-28T14:28:09.174Z,79.79
2023-03-28T14:30:43.070Z,79.47
2023-03-28T14:33:20.953Z,79.41
2023-03-28T14:35:58.811Z,80.31
2023-03-28T14:38:33.656Z,79.85
2023-03-28T14:41:13.866Z,80.22
2023-03-28T14:43:42.609Z,81.28
2023-03-28T14:46:12.718Z,80.76
2023-03-28T14:48:43.751Z,80.10
2023-03-28T14:51:15.068Z,80.99
2023-03-28T14:53:47.853Z,83.03
2023-03-28T14:56:19.913Z,82.37
2023-03-28T14:58:50.140Z,80.62
2023-03-28T15:01:23.268Z,79.66
2023-03-28T15:03:55.037Z,79.55
2023-03-28T15:06:24.895Z,78.67
2023-03-28T15:08:56.776Z,79.09
2023-03-28T15:11:29.958Z,78.32
2023-03-28T15:14:04.393Z,78.85
2023-03-28T15:16:38.170Z,79.17
2023-03-28T15:19:10.135Z,78.62
2023-03-28T15:21:41.699Z,80.44
2023-03-28T15:24:13.996Z,81.30
2023-03-28T15:26:45.449Z,80.33
2023-03-28T15:29:18.694Z,80.06
2023-03-28T15:31:47.834Z,81.50
2023-03-28T15:34:22.047Z,82.72
2023-03-28T15:36:54.584Z,82.59
2023-03-28T15:39:27.379Z,82.58
2023-03-28T15:42:00.366Z,84.49
2023-03-28T15:44:31.802Z,86.01
2023-03-28T15:47:02.862Z,87.06
2023-03-28T15:49:36.778Z,87.20
2023-03-28T15:52:09.415Z,86.47
2023-03-28T15:54:45.436Z,87.09
2023-03-28T15:57:15.886Z,86.47
2023-03-28T15:59:51.226Z,86.15
2023-03-28T16:02:33.255Z,85.86
2023-03-28T16:05:03.391Z,86.10
2023-03-28T16:07:37.386Z,85.97
2023-03-28T16:10:08.038Z,86.28
2023-03-28T16:12:36.476Z,86.33
2023-03-28T16:15:05.688Z,86.71
2023-03-28T16:17:34.260Z,86.83
2023-03-28T16:20:02.584Z,87.51
2023-03-28T16:22:31.420Z,87.74
2023-03-28T16:24:59.859Z,87.68
2023-03-28T16:27:30.058Z,88.18
2023-03-28T16:29:58.750Z,88.83
2023-03-28T16:32:26.998Z,89.89
2023-03-28T16:34:55.563Z,89.53
2023-03-28T16:37:23.992Z,89.65
2023-03-28T16:39:52.422Z,89.59
2023-03-28T16:42:21.784Z,89.82
2023-03-28T16:44:51.675Z,89.49
2023-03-28T16:47:32.226Z,89.69
2023-03-28T16:50:00.446Z,89.92
2023-03-28T16:52:30.073Z,90.23
2023-03-28T16:54:58.437Z,90.19
2023-03-28T16:57:27.545Z,91.03
2023-03-28T16:59:58.487Z,92.21
2023-03-28T17:02:27.025Z,92.52
2023-03-28T17:04:55.416Z,92.85
2023-03-28T17:10:55.422Z,93.55
2023-03-28T17:13:26.117Z,94.01
2023-03-28T17:15:56.749Z,94.05
2023-03-28T17:18:25.080Z,94.32
2023-03-28T17:21:01.573Z,94.77
2023-03-28T17:23:29.914Z,94.66
2023-03-28T17:26:03.277Z,94.54
2023-03-28T17:28:32.502Z,94.84
2023-03-28T17:31:07.088Z,94.53
2023-03-28T17:33:35.715Z,94.82
2023-03-28T17:36:15.398Z,94.65
2023-03-28T17:38:44.166Z,94.56
2023-03-28T17:41:12.694Z,94.87
2023-03-28T17:43:44.904Z,95.39
2023-03-28T17:46:15.154Z,95.86
2023-03-28T17:48:51.583Z,95.98
2023-03-28T17:51:20.041Z,95.96
2023-03-28T17:53:48.692Z,95.79
2023-03-28T17:56:17.666Z,96.19
2023-03-28T17:58:46.720Z,96.65
2023-03-28T18:01:24.290Z,97.11
2023-03-28T18:03:54.285Z,97.17
2023-03-28T18:06:22.907Z,97.14
2023-03-28T18:08:51.824Z,97.32
2023-03-28T18:11:20.388Z,96.82
2023-03-28T18:13:48.706Z,97.31
2023-03-28T18:16:19.255Z,97.70
2023-03-28T18:18:48.645Z,98.45
2023-03-28T18:21:20.012Z,98.45
2023-03-28T18:23:48.333Z,98.30
2023-03-28T18:26:21.650Z,97.89
2023-03-28T18:28:49.980Z,98.43
2023-03-28T18:31:28.197Z,98.52
2023-03-28T18:33:57.844Z,98.72
2023-03-28T18:36:26.855Z,98.88
2023-03-28T18:38:56.808Z,99.38
2023-03-28T18:41:27.100Z,99.89
2023-03-28T18:43:55.805Z,100.00
2023-03-28T18:46:26.996Z,100.00
2023-03-28T18:48:56.077Z,100.00
2023-03-28T18:51:25.903Z,100.00
2023-03-28T18:53:54.866Z,100.00
2023-03-28T18:56:23.636Z,100.00
2023-03-28T18:58:52.455Z,100.00
2023-03-28T19:01:23.352Z,100.00
2023-03-28T19:03:53.145Z,100.00
2023-03-28T19:06:23.805Z,100.00
2023-03-28T19:08:52.256Z,100.00
2023-03-28T19:11:21.505Z,100.00
2023-03-28T19:13:50.581Z,100.00
2023-03-28T19:16:19.970Z,100.00
2023-03-28T19:18:49.039Z,100.00
2023-03-28T19:21:20.688Z,100.00
2023-03-28T19:23:50.091Z,100.00
2023-03-28T19:26:23.032Z,100.00
2023-03-28T19:28:51.773Z,100.00
2023-03-28T19:31:22.719Z,100.00
2023-03-28T19:33:51.125Z,100.00
2023-03-28T19:36:24.434Z,100.00
2023-03-28T19:38:52.660Z,100.00
2023-03-28T19:41:23.561Z,100.00
2023-03-28T19:43:52.452Z,100.00
2023-03-28T19:46:26.818Z,100.00
2023-03-28T19:48:59.487Z,100.00
2023-03-28T19:51:30.149Z,100.00
2023-03-28T19:53:58.512Z,100.00
2023-03-28T19:56:27.324Z,100.00
2023-03-28T19:58:55.723Z,100.00
2023-03-28T20:01:23.962Z,100.00
2023-03-28T20:03:53.467Z,100.00
2023-03-28T20:06:23.389Z,100.00
2023-03-28T20:08:53.424Z,100.00
2023-03-28T20:11:22.500Z,100.00
2023-03-28T20:13:50.895Z,100.00
2023-03-28T20:16:19.127Z,100.00
2023-03-28T20:18:48.503Z,100.00
2023-03-28T20:21:16.775Z,100.00
2023-03-28T20:23:44.873Z,100.00
2023-03-28T20:26:16.590Z,100.00
2023-03-28T20:28:46.910Z,100.00
2023-03-28T20:31:15.083Z,100.00
2023-03-28T20:33:43.453Z,100.00
2023-03-28T20:36:12.228Z,100.00
2023-03-28T20:38:41.248Z,100.00
2023-03-28T20:41:15.359Z,100.00
2023-03-28T20:43:47.840Z,100.00
2023-03-28T20:46:19.242Z,100.00
2023-03-28T20:48:53.094Z,100.00
2023-03-28T20:51:23.706Z,100.00
2023-03-28T20:53:54.882Z,100.00
2023-03-28T20:56:26.297Z,100.00
2023-03-28T20:58:55.512Z,100.00
2023-03-28T21:01:28.091Z,100.00
2023-03-28T21:04:00.052Z,100.00
2023-03-28T21:06:30.733Z,100.00
2023-03-28T21:09:00.923Z,100.00
2023-03-28T21:11:32.305Z,100.00
2023-03-28T21:14:02.201Z,100.00
2023-03-28T21:16:31.879Z,100.00
2023-03-28T21:19:00.470Z,100.00
2023-03-28T21:21:30.090Z,100.00
2023-03-28T21:23:58.615Z,100.00
2023-03-28T21:26:29.256Z,100.00
2023-03-28T21:28:59.625Z,100.00
2023-03-28T21:31:30.935Z,100.00
2023-03-28T21:34:00.975Z,100.00
2023-03-28T21:36:29.420Z,100.00
2023-03-28T21:38:59.453Z,100.00
2023-03-28T21:41:28.464Z,100.00
2023-03-28T21:43:59.056Z,100.00
2023-03-28T21:46:29.242Z,100.00
2023-03-28T21:48:57.730Z,100.00
2023-03-28T21:51:26.046Z,100.00
2023-03-28T21:53:54.398Z,100.00
2023-03-28T21:56:23.124Z,100.00
2023-03-28T21:58:52.011Z,100.00
2023-03-28T22:01:21.091Z,100.00
2023-03-28T22:03:51.119Z,100.00
2023-03-28T22:06:20.324Z,100.00
2023-03-28T22:08:52.616Z,100.00
2023-03-28T22:11:27.627Z,100.00
2023-03-28T22:14:02.833Z,100.00
2023-03-28T22:16:32.780Z,100.00
2023-03-28T22:19:02.952Z,100.00
2023-03-28T22:21:31.708Z,100.00
2023-03-28T22:24:02.673Z,100.00
2023-03-28T22:26:31.264Z,100.00
2023-03-28T22:29:00.461Z,100.00
2023-03-28T22:31:29.489Z,100.00
2023-03-28T22:33:58.140Z,100.00
2023-03-28T22:36:27.966Z,100.00
2023-03-28T22:38:57.072Z,100.00
2023-03-28T22:41:27.529Z,100.00
2023-03-28T22:43:55.686Z,100.00
2023-03-28T22:46:23.976Z,100.00
2023-03-28T22:48:54.488Z,100.00
2023-03-28T22:51:28.425Z,100.00
2023-03-28T22:54:02.026Z,100.00
2023-03-28T22:56:30.867Z,100.00
2023-03-28T22:59:01.267Z,100.00
2023-03-28T23:01:30.302Z,100.00
2023-03-28T23:03:58.798Z,100.00
2023-03-28T23:06:27.233Z,100.00
2023-03-28T23:08:55.648Z,100.00
2023-03-28T23:11:25.457Z,100.00
2023-03-28T23:13:53.528Z,100.00
2023-03-28T23:16:22.077Z,100.00
2023-03-28T23:18:50.921Z,100.00
2023-03-28T23:21:19.101Z,100.00
2023-03-28T23:23:47.599Z,100.00
2023-03-28T23:26:15.920Z,100.00
2023-03-28T23:28:45.768Z,100.00
2023-03-28T23:31:14.201Z,100.00
2023-03-28T23:33:44.438Z,100.00
2023-03-28T23:36:14.250Z,100.00
2023-03-28T23:38:43.080Z,100.00
2023-03-28T23:41:11.352Z,100.00
2023-03-28T23:43:39.602Z,100.00
2023-03-28T23:46:09.220Z,100.00
2023-03-28T23:48:37.709Z,100.00
2023-03-28T23:51:06.715Z,100.00
2023-03-28T23:53:35.250Z,100.00
2023-03-28T23:56:04.186Z,100.00
2023-03-28T23:58:32.348Z,100.00
